N671MD KTEX-KVNY
Flight info
| Callsign | N671MD |
|---|---|
| Flight time | N/A |
| Altitude | 43000 |
| Route | DCT DVC DCT ROOLL Q94 WELUM JANNY5 |
| Aircraft | C680/M-SDFGHRWY/SB1 |
Departure
| Time | 2026-04-18 02:20 |
|---|---|
| Airport | Telluride Regional Airport (KTEX) |
Arrival
| Time | N/A |
|---|---|
| Airport | Van Nuys Airport (KVNY) |
| Time | Latitude | Longitude | Altitude | Speed | Heading |
|---|---|---|---|---|---|
| 2026-04-18 02:02 | 37.95414 | -107.90202 | 9052 ft | 0 kts | 14° |
| 2026-04-18 02:09 | 37.95400 | -107.90206 | 9233 ft | 3 kts | 14° |
| 2026-04-18 02:10 | 37.95391 | -107.90209 | 9233 ft | 0 kts | 14° |
| 2026-04-18 02:13 | 37.95392 | -107.90208 | 9233 ft | 1 kts | 14° |
| 2026-04-18 02:14 | 37.95394 | -107.90208 | 9233 ft | 0 kts | 14° |
| 2026-04-18 02:14 | 37.95394 | -107.90207 | 9233 ft | 0 kts | 21° |
| 2026-04-18 02:14 | 37.95395 | -107.90206 | 9233 ft | 0 kts | 46° |
| 2026-04-18 02:15 | 37.95394 | -107.90203 | 9235 ft | 0 kts | 85° |
| 2026-04-18 02:15 | 37.95393 | -107.90202 | 9234 ft | 0 kts | 116° |
| 2026-04-18 02:15 | 37.95367 | -107.90172 | 9232 ft | 10 kts | 137° |
| 2026-04-18 02:16 | 37.95328 | -107.90080 | 9233 ft | 13 kts | 104° |
| 2026-04-18 02:16 | 37.95306 | -107.89975 | 9238 ft | 11 kts | 105° |
| 2026-04-18 02:16 | 37.95287 | -107.89887 | 9242 ft | 9 kts | 105° |
| 2026-04-18 02:16 | 37.95276 | -107.89838 | 9244 ft | 8 kts | 105° |
| 2026-04-18 02:17 | 37.95264 | -107.89778 | 9247 ft | 6 kts | 104° |
| 2026-04-18 02:17 | 37.95255 | -107.89734 | 9249 ft | 4 kts | 105° |
| 2026-04-18 02:17 | 37.95247 | -107.89698 | 9251 ft | 2 kts | 105° |
| 2026-04-18 02:17 | 37.95246 | -107.89692 | 9250 ft | 0 kts | 108° |
| 2026-04-18 02:18 | 37.95234 | -107.89677 | 9250 ft | 6 kts | 147° |
| 2026-04-18 02:18 | 37.95168 | -107.89680 | 9253 ft | 11 kts | 192° |
| 2026-04-18 02:19 | 37.95141 | -107.89734 | 9250 ft | 7 kts | 282° |
| 2026-04-18 02:19 | 37.95142 | -107.89740 | 9249 ft | 0 kts | 285° |
| 2026-04-18 02:19 | 37.95201 | -107.90014 | 9239 ft | 75 kts | 285° |
| 2026-04-18 02:20 | 37.95409 | -107.90983 | 9241 ft | 146 kts | 285° |
| 2026-04-18 02:20 | 37.95725 | -107.92335 | 9804 ft | 172 kts | 285° |
| 2026-04-18 02:20 | 37.96108 | -107.93855 | 10847 ft | 184 kts | 287° |
| 2026-04-18 02:20 | 37.96533 | -107.95365 | 12081 ft | 181 kts | 288° |
| 2026-04-18 02:21 | 37.96963 | -107.96913 | 12931 ft | 203 kts | 290° |
| 2026-04-18 02:21 | 37.97442 | -107.98706 | 13504 ft | 213 kts | 290° |
| 2026-04-18 02:21 | 37.97923 | -108.00550 | 14063 ft | 233 kts | 289° |
| 2026-04-18 02:21 | 37.98428 | -108.02577 | 14783 ft | 247 kts | 290° |
| 2026-04-18 02:22 | 37.98960 | -108.04659 | 15854 ft | 249 kts | 288° |
| 2026-04-18 02:22 | 37.99432 | -108.06789 | 16946 ft | 259 kts | 286° |
| 2026-04-18 02:22 | 37.99888 | -108.09098 | 17351 ft | 277 kts | 285° |
| 2026-04-18 02:22 | 38.00337 | -108.11454 | 17380 ft | 276 kts | 285° |
| 2026-04-18 02:23 | 38.00793 | -108.13907 | 18068 ft | 286 kts | 284° |
| 2026-04-18 02:23 | 38.01247 | -108.16332 | 19294 ft | 283 kts | 284° |
| 2026-04-18 02:23 | 38.01713 | -108.18790 | 20190 ft | 289 kts | 282° |
| 2026-04-18 02:23 | 38.01628 | -108.21357 | 21065 ft | 299 kts | 260° |
| 2026-04-18 02:24 | 38.00908 | -108.23855 | 22012 ft | 305 kts | 252° |
| 2026-04-18 02:24 | 38.00008 | -108.26314 | 22913 ft | 309 kts | 249° |
| 2026-04-18 02:24 | 37.99061 | -108.28777 | 23785 ft | 312 kts | 249° |
| 2026-04-18 02:24 | 37.98101 | -108.31264 | 24495 ft | 315 kts | 249° |
| 2026-04-18 02:25 | 37.97144 | -108.33748 | 25155 ft | 319 kts | 249° |
| 2026-04-18 02:25 | 37.96171 | -108.36282 | 25802 ft | 322 kts | 249° |
| 2026-04-18 02:25 | 37.95189 | -108.38843 | 26435 ft | 324 kts | 249° |
| 2026-04-18 02:25 | 37.94205 | -108.41422 | 27051 ft | 327 kts | 249° |
| 2026-04-18 02:26 | 37.93206 | -108.44039 | 27585 ft | 332 kts | 249° |
| 2026-04-18 02:26 | 37.92188 | -108.46692 | 28095 ft | 337 kts | 249° |
| 2026-04-18 02:26 | 37.91154 | -108.49370 | 28726 ft | 338 kts | 249° |
| 2026-04-18 02:26 | 37.90119 | -108.52029 | 29488 ft | 335 kts | 249° |
| 2026-04-18 02:27 | 37.89089 | -108.54670 | 30182 ft | 334 kts | 249° |
| 2026-04-18 02:27 | 37.88058 | -108.57297 | 30794 ft | 332 kts | 249° |
| 2026-04-18 02:27 | 37.87028 | -108.59906 | 31385 ft | 330 kts | 249° |
| 2026-04-18 02:27 | 37.86010 | -108.62498 | 31971 ft | 328 kts | 250° |
| 2026-04-18 02:28 | 37.85102 | -108.65135 | 32546 ft | 324 kts | 254° |
| 2026-04-18 02:28 | 37.84424 | -108.67829 | 33100 ft | 319 kts | 261° |
| 2026-04-18 02:28 | 37.84055 | -108.70572 | 33670 ft | 315 kts | 265° |
| 2026-04-18 02:28 | 37.83782 | -108.73317 | 34229 ft | 314 kts | 265° |
| 2026-04-18 02:29 | 37.83409 | -108.76037 | 34649 ft | 315 kts | 262° |
| 2026-04-18 02:29 | 37.82967 | -108.78751 | 35005 ft | 316 kts | 262° |
| 2026-04-18 02:29 | 37.82554 | -108.81490 | 35371 ft | 318 kts | 263° |
| 2026-04-18 02:29 | 37.82170 | -108.84250 | 35738 ft | 319 kts | 263° |
| 2026-04-18 02:30 | 37.81776 | -108.87014 | 36111 ft | 320 kts | 262° |
| 2026-04-18 02:30 | 37.81358 | -108.89780 | 36477 ft | 321 kts | 261° |
| 2026-04-18 02:30 | 37.80733 | -108.92472 | 36833 ft | 325 kts | 253° |
| 2026-04-18 02:30 | 37.79809 | -108.95092 | 37210 ft | 328 kts | 246° |
| 2026-04-18 02:31 | 37.78617 | -108.97563 | 37585 ft | 329 kts | 240° |
| 2026-04-18 02:31 | 37.77368 | -108.99981 | 38003 ft | 328 kts | 240° |
| 2026-04-18 02:31 | 37.76139 | -109.02416 | 38381 ft | 328 kts | 240° |
| 2026-04-18 02:31 | 37.74909 | -109.04847 | 38752 ft | 328 kts | 240° |
| 2026-04-18 02:32 | 37.73665 | -109.07273 | 39063 ft | 329 kts | 240° |
| 2026-04-18 02:32 | 37.72420 | -109.09701 | 39340 ft | 328 kts | 240° |
| 2026-04-18 02:32 | 37.71182 | -109.12125 | 39606 ft | 329 kts | 240° |
| 2026-04-18 02:32 | 37.69941 | -109.14558 | 39819 ft | 331 kts | 240° |
| 2026-04-18 02:33 | 37.68690 | -109.16998 | 40098 ft | 331 kts | 240° |
| 2026-04-18 02:33 | 37.67448 | -109.19417 | 40385 ft | 331 kts | 240° |
| 2026-04-18 02:33 | 37.66188 | -109.21874 | 40669 ft | 331 kts | 240° |
| 2026-04-18 02:33 | 37.64936 | -109.24317 | 40968 ft | 331 kts | 240° |
| 2026-04-18 02:34 | 37.63688 | -109.26757 | 41215 ft | 331 kts | 240° |
| 2026-04-18 02:34 | 37.62433 | -109.29191 | 41493 ft | 331 kts | 240° |
| 2026-04-18 02:34 | 37.61191 | -109.31594 | 41762 ft | 331 kts | 240° |
| 2026-04-18 02:34 | 37.59939 | -109.34029 | 42041 ft | 331 kts | 240° |
| 2026-04-18 02:35 | 37.58688 | -109.36465 | 42307 ft | 331 kts | 240° |
| 2026-04-18 02:35 | 37.57436 | -109.38893 | 42586 ft | 331 kts | 240° |
| 2026-04-18 02:35 | 37.56183 | -109.41321 | 42869 ft | 330 kts | 240° |
| 2026-04-18 02:35 | 37.54930 | -109.43747 | 43136 ft | 330 kts | 240° |
| 2026-04-18 02:36 | 37.53671 | -109.46186 | 43151 ft | 333 kts | 240° |
| 2026-04-18 02:36 | 37.51114 | -109.51130 | 43153 ft | 339 kts | 240° |
| 2026-04-18 02:37 | 37.48539 | -109.56102 | 43158 ft | 344 kts | 240° |
| 2026-04-18 02:37 | 37.45907 | -109.61175 | 43156 ft | 347 kts | 240° |
| 2026-04-18 02:38 | 37.43256 | -109.66277 | 43136 ft | 350 kts | 240° |
| 2026-04-18 02:38 | 37.40603 | -109.71371 | 43134 ft | 345 kts | 240° |
| 2026-04-18 02:39 | 37.37961 | -109.76449 | 43138 ft | 350 kts | 240° |
| 2026-04-18 02:39 | 37.35274 | -109.81593 | 43137 ft | 354 kts | 240° |
| 2026-04-18 02:40 | 37.32557 | -109.86786 | 43139 ft | 358 kts | 240° |
| 2026-04-18 02:40 | 37.29811 | -109.92032 | 43130 ft | 360 kts | 240° |
| 2026-04-18 02:41 | 37.27046 | -109.97316 | 43137 ft | 364 kts | 240° |
| 2026-04-18 02:41 | 37.24241 | -110.02647 | 43140 ft | 367 kts | 240° |
| 2026-04-18 02:42 | 37.21415 | -110.08026 | 43144 ft | 370 kts | 240° |
| 2026-04-18 02:42 | 37.18556 | -110.13439 | 43144 ft | 373 kts | 239° |
| 2026-04-18 02:43 | 37.15684 | -110.18883 | 43134 ft | 376 kts | 240° |
| 2026-04-18 02:43 | 37.12808 | -110.24328 | 43137 ft | 378 kts | 240° |
| 2026-04-18 02:44 | 37.09902 | -110.29827 | 43131 ft | 379 kts | 239° |
| 2026-04-18 02:44 | 37.06969 | -110.35346 | 43139 ft | 381 kts | 239° |
| 2026-04-18 02:45 | 37.04028 | -110.40883 | 43134 ft | 383 kts | 239° |
| 2026-04-18 02:45 | 37.01070 | -110.46443 | 43134 ft | 384 kts | 239° |
| 2026-04-18 02:46 | 36.98095 | -110.52016 | 43136 ft | 385 kts | 239° |
| 2026-04-18 02:46 | 36.95118 | -110.57602 | 43133 ft | 386 kts | 239° |
| 2026-04-18 02:47 | 36.92142 | -110.63157 | 43142 ft | 386 kts | 239° |
| 2026-04-18 02:47 | 36.89153 | -110.68747 | 43133 ft | 387 kts | 239° |
| 2026-04-18 02:48 | 36.86147 | -110.74342 | 43127 ft | 388 kts | 239° |
| 2026-04-18 02:48 | 36.83135 | -110.79950 | 43125 ft | 389 kts | 239° |
| 2026-04-18 02:49 | 36.80120 | -110.85553 | 43125 ft | 390 kts | 240° |
| 2026-04-18 02:49 | 36.77095 | -110.91167 | 43192 ft | 389 kts | 239° |
| 2026-04-18 02:50 | 36.74088 | -110.96748 | 43385 ft | 385 kts | 239° |
| 2026-04-18 02:50 | 36.72594 | -110.99509 | 43117 ft | 379 kts | 239° |
| 2026-04-18 02:50 | 36.71146 | -111.02145 | 43112 ft | 373 kts | 239° |
| 2026-04-18 02:51 | 36.68193 | -111.07493 | 43171 ft | 374 kts | 238° |
| 2026-04-18 02:51 | 36.65230 | -111.12815 | 43296 ft | 374 kts | 238° |
| 2026-04-18 02:52 | 36.62237 | -111.18129 | 43288 ft | 376 kts | 238° |
| 2026-04-18 02:52 | 36.59190 | -111.23463 | 43303 ft | 378 kts | 238° |
| 2026-04-18 02:52 | 36.57653 | -111.26124 | 43406 ft | 377 kts | 238° |
| 2026-04-18 02:53 | 36.56121 | -111.28766 | 43488 ft | 376 kts | 238° |
| 2026-04-18 02:53 | 36.53064 | -111.34010 | 43495 ft | 378 kts | 237° |
| 2026-04-18 02:54 | 36.49938 | -111.39353 | 43510 ft | 380 kts | 237° |
| 2026-04-18 02:54 | 36.46840 | -111.44607 | 43674 ft | 378 kts | 237° |
| 2026-04-18 02:55 | 36.43707 | -111.49867 | 43682 ft | 380 kts | 237° |
| 2026-04-18 02:55 | 36.40511 | -111.55125 | 43699 ft | 381 kts | 236° |
| 2026-04-18 02:56 | 36.37195 | -111.60250 | 43835 ft | 380 kts | 234° |
| 2026-04-18 02:56 | 36.32123 | -111.67889 | 43691 ft | 383 kts | 234° |
| 2026-04-18 02:57 | 36.30421 | -111.70445 | 43116 ft | 380 kts | 234° |
| 2026-04-18 02:57 | 36.28772 | -111.72915 | 43115 ft | 376 kts | 234° |
| 2026-04-18 02:57 | 36.25430 | -111.77921 | 43118 ft | 378 kts | 234° |
| 2026-04-18 02:58 | 36.22067 | -111.82960 | 43107 ft | 381 kts | 234° |
| 2026-04-18 02:58 | 36.18683 | -111.88052 | 43120 ft | 384 kts | 234° |
| 2026-04-18 02:59 | 36.15279 | -111.93177 | 43131 ft | 386 kts | 234° |
| 2026-04-18 02:59 | 36.11859 | -111.98323 | 43139 ft | 388 kts | 234° |
| 2026-04-18 03:00 | 36.08434 | -112.03480 | 43149 ft | 389 kts | 234° |
| 2026-04-18 03:00 | 36.04999 | -112.08655 | 43167 ft | 390 kts | 234° |
| 2026-04-18 03:01 | 36.01555 | -112.13840 | 43169 ft | 391 kts | 234° |
| 2026-04-18 03:01 | 35.98116 | -112.19007 | 43170 ft | 392 kts | 234° |
| 2026-04-18 03:02 | 35.94643 | -112.24222 | 43170 ft | 393 kts | 234° |
| 2026-04-18 03:02 | 35.91752 | -112.28564 | 43155 ft | 394 kts | 234° |
| 2026-04-18 03:03 | 35.88270 | -112.33792 | 43129 ft | 394 kts | 234° |
| 2026-04-18 03:03 | 35.84784 | -112.39025 | 43041 ft | 395 kts | 234° |
| 2026-04-18 03:04 | 35.81289 | -112.44269 | 43039 ft | 396 kts | 234° |
| 2026-04-18 03:04 | 35.77843 | -112.49554 | 43002 ft | 393 kts | 240° |
| 2026-04-18 03:05 | 35.76821 | -112.52625 | 43019 ft | 386 kts | 259° |
| 2026-04-18 03:05 | 35.76673 | -112.55913 | 43037 ft | 386 kts | 272° |
| 2026-04-18 03:05 | 35.77394 | -112.62429 | 43029 ft | 387 kts | 279° |
| 2026-04-18 03:06 | 35.78412 | -112.68952 | 43030 ft | 388 kts | 280° |
| 2026-04-18 03:06 | 35.79473 | -112.75477 | 43027 ft | 388 kts | 280° |
| 2026-04-18 03:07 | 35.80537 | -112.82013 | 43021 ft | 389 kts | 280° |
| 2026-04-18 03:07 | 35.81586 | -112.88515 | 43018 ft | 390 kts | 280° |
| 2026-04-18 03:08 | 35.82645 | -112.95083 | 43018 ft | 390 kts | 280° |
| 2026-04-18 03:08 | 35.83710 | -113.01667 | 43024 ft | 391 kts | 280° |
| 2026-04-18 03:09 | 35.84778 | -113.08234 | 43094 ft | 390 kts | 280° |
| 2026-04-18 03:09 | 35.85820 | -113.14612 | 43014 ft | 376 kts | 281° |
| 2026-04-18 03:10 | 35.86865 | -113.20995 | 43046 ft | 379 kts | 281° |
| 2026-04-18 03:10 | 35.87903 | -113.27345 | 43029 ft | 381 kts | 281° |
| 2026-04-18 03:11 | 35.88952 | -113.33779 | 43023 ft | 384 kts | 280° |
| 2026-04-18 03:11 | 35.89000 | -113.37058 | 43002 ft | 385 kts | 262° |
| 2026-04-18 03:11 | 35.88189 | -113.40213 | 43008 ft | 389 kts | 249° |
| 2026-04-18 03:12 | 35.85747 | -113.46182 | 43016 ft | 390 kts | 246° |
| 2026-04-18 03:12 | 35.83735 | -113.52382 | 43008 ft | 389 kts | 254° |
| 2026-04-18 03:13 | 35.81850 | -113.58610 | 43007 ft | 392 kts | 250° |
| 2026-04-18 03:13 | 35.79813 | -113.64837 | 43016 ft | 392 kts | 252° |
| 2026-04-18 03:14 | 35.77865 | -113.71117 | 43012 ft | 393 kts | 251° |
| 2026-04-18 03:14 | 35.75858 | -113.77348 | 43012 ft | 391 kts | 251° |
| 2026-04-18 03:15 | 35.73876 | -113.83606 | 43012 ft | 392 kts | 251° |
| 2026-04-18 03:15 | 35.71875 | -113.89856 | 43002 ft | 393 kts | 251° |
| 2026-04-18 03:16 | 35.69872 | -113.96120 | 43002 ft | 394 kts | 251° |
| 2026-04-18 03:16 | 35.67860 | -114.02390 | 43002 ft | 394 kts | 251° |
| 2026-04-18 03:17 | 35.65843 | -114.08668 | 43002 ft | 395 kts | 251° |
| 2026-04-18 03:17 | 35.63820 | -114.14948 | 43002 ft | 395 kts | 251° |
| 2026-04-18 03:18 | 35.61789 | -114.21243 | 43004 ft | 396 kts | 251° |
| 2026-04-18 03:18 | 35.59752 | -114.27539 | 43012 ft | 397 kts | 251° |
| 2026-04-18 03:19 | 35.57724 | -114.33797 | 43016 ft | 398 kts | 250° |
| 2026-04-18 03:19 | 35.55670 | -114.40118 | 43054 ft | 398 kts | 250° |
| 2026-04-18 03:20 | 35.53616 | -114.46430 | 43049 ft | 398 kts | 250° |
| 2026-04-18 03:20 | 35.51556 | -114.52744 | 43066 ft | 399 kts | 250° |
| 2026-04-18 03:21 | 35.49486 | -114.59078 | 43063 ft | 399 kts | 250° |
| 2026-04-18 03:21 | 35.47425 | -114.65370 | 43074 ft | 400 kts | 250° |
| 2026-04-18 03:22 | 35.45344 | -114.71707 | 43067 ft | 400 kts | 250° |
| 2026-04-18 03:22 | 35.43260 | -114.78045 | 43078 ft | 400 kts | 250° |
| 2026-04-18 03:23 | 35.41184 | -114.84342 | 43080 ft | 400 kts | 250° |
| 2026-04-18 03:23 | 35.39097 | -114.90658 | 43080 ft | 400 kts | 250° |
| 2026-04-18 03:24 | 35.37142 | -114.97045 | 43079 ft | 399 kts | 253° |
| 2026-04-18 03:24 | 35.35300 | -115.03470 | 43095 ft | 399 kts | 252° |
| 2026-04-18 03:25 | 35.33452 | -115.09854 | 43094 ft | 399 kts | 252° |
| 2026-04-18 03:25 | 35.32524 | -115.13077 | 42821 ft | 406 kts | 252° |
| 2026-04-18 03:25 | 35.31569 | -115.16380 | 42293 ft | 416 kts | 252° |
| 2026-04-18 03:26 | 35.30598 | -115.19721 | 41752 ft | 414 kts | 252° |
| 2026-04-18 03:26 | 35.29638 | -115.23020 | 41204 ft | 410 kts | 252° |
| 2026-04-18 03:26 | 35.28687 | -115.26298 | 40669 ft | 409 kts | 252° |
| 2026-04-18 03:26 | 35.27732 | -115.29587 | 40138 ft | 410 kts | 252° |
| 2026-04-18 03:27 | 35.26775 | -115.32873 | 39600 ft | 411 kts | 252° |
| 2026-04-18 03:27 | 35.25810 | -115.36180 | 39057 ft | 412 kts | 253° |
| 2026-04-18 03:27 | 35.24845 | -115.39489 | 38470 ft | 414 kts | 253° |
| 2026-04-18 03:27 | 35.23875 | -115.42806 | 37914 ft | 412 kts | 253° |
| 2026-04-18 03:28 | 35.22910 | -115.46104 | 37372 ft | 412 kts | 253° |
| 2026-04-18 03:28 | 35.21946 | -115.49391 | 36832 ft | 406 kts | 253° |
| 2026-04-18 03:28 | 35.20994 | -115.52640 | 36296 ft | 410 kts | 253° |
| 2026-04-18 03:28 | 35.20025 | -115.55953 | 35753 ft | 417 kts | 253° |
| 2026-04-18 03:29 | 35.19055 | -115.59248 | 35209 ft | 414 kts | 253° |
| 2026-04-18 03:29 | 35.18067 | -115.62593 | 34657 ft | 415 kts | 253° |
| 2026-04-18 03:29 | 35.17097 | -115.65893 | 34103 ft | 419 kts | 253° |
| 2026-04-18 03:29 | 35.16108 | -115.69256 | 33519 ft | 420 kts | 253° |
| 2026-04-18 03:30 | 35.15114 | -115.72615 | 32965 ft | 421 kts | 253° |
| 2026-04-18 03:30 | 35.14113 | -115.75998 | 32406 ft | 424 kts | 253° |
| 2026-04-18 03:30 | 35.13099 | -115.79400 | 31835 ft | 428 kts | 252° |
| 2026-04-18 03:30 | 35.11812 | -115.82688 | 31256 ft | 432 kts | 244° |
| 2026-04-18 03:31 | 35.10218 | -115.85839 | 30681 ft | 436 kts | 241° |
| 2026-04-18 03:31 | 35.08606 | -115.88990 | 30086 ft | 439 kts | 242° |
| 2026-04-18 03:31 | 35.06998 | -115.92181 | 29472 ft | 441 kts | 242° |
| 2026-04-18 03:31 | 35.05389 | -115.95370 | 28886 ft | 443 kts | 241° |
| 2026-04-18 03:32 | 35.03753 | -115.98582 | 28309 ft | 445 kts | 241° |
| 2026-04-18 03:32 | 35.02120 | -116.01773 | 27717 ft | 440 kts | 240° |
| 2026-04-18 03:32 | 35.00504 | -116.04948 | 27140 ft | 442 kts | 241° |
| 2026-04-18 03:32 | 34.98896 | -116.08109 | 26562 ft | 433 kts | 241° |
| 2026-04-18 03:33 | 34.97323 | -116.11194 | 25998 ft | 435 kts | 240° |
| 2026-04-18 03:33 | 34.95728 | -116.14316 | 25415 ft | 430 kts | 240° |
| 2026-04-18 03:33 | 34.94153 | -116.17395 | 24851 ft | 428 kts | 240° |
| 2026-04-18 03:33 | 34.92579 | -116.20474 | 24287 ft | 427 kts | 240° |
| 2026-04-18 03:34 | 34.91196 | -116.23612 | 24068 ft | 415 kts | 248° |
| 2026-04-18 03:34 | 34.89963 | -116.26848 | 24060 ft | 427 kts | 247° |
| 2026-04-18 03:34 | 34.88705 | -116.30078 | 24061 ft | 417 kts | 247° |
| 2026-04-18 03:34 | 34.87440 | -116.33304 | 24060 ft | 429 kts | 247° |
| 2026-04-18 03:35 | 34.86181 | -116.36545 | 24060 ft | 416 kts | 247° |
| 2026-04-18 03:35 | 34.84937 | -116.39770 | 24064 ft | 427 kts | 247° |
| 2026-04-18 03:35 | 34.83676 | -116.43020 | 24034 ft | 418 kts | 247° |
| 2026-04-18 03:35 | 34.82415 | -116.46243 | 23854 ft | 429 kts | 247° |
| 2026-04-18 03:36 | 34.81145 | -116.49496 | 23605 ft | 416 kts | 247° |
| 2026-04-18 03:36 | 34.79904 | -116.52685 | 23307 ft | 425 kts | 247° |
| 2026-04-18 03:36 | 34.78903 | -116.56019 | 23092 ft | 407 kts | 257° |
| 2026-04-18 03:36 | 34.78367 | -116.59403 | 22899 ft | 415 kts | 265° |
| 2026-04-18 03:37 | 34.78051 | -116.62884 | 22653 ft | 405 kts | 265° |
| 2026-04-18 03:37 | 34.77728 | -116.66290 | 22394 ft | 413 kts | 265° |
| 2026-04-18 03:37 | 34.77383 | -116.69756 | 22130 ft | 403 kts | 265° |
| 2026-04-18 03:37 | 34.77049 | -116.73118 | 22106 ft | 404 kts | 265° |
| 2026-04-18 03:38 | 34.76728 | -116.76457 | 22109 ft | 384 kts | 265° |
| 2026-04-18 03:38 | 34.76419 | -116.79672 | 22105 ft | 396 kts | 265° |
| 2026-04-18 03:38 | 34.76090 | -116.83049 | 22108 ft | 400 kts | 265° |
| 2026-04-18 03:38 | 34.75756 | -116.86399 | 22102 ft | 406 kts | 265° |
| 2026-04-18 03:39 | 34.75413 | -116.89841 | 22095 ft | 406 kts | 265° |
| 2026-04-18 03:39 | 34.75069 | -116.93229 | 22090 ft | 409 kts | 264° |
| 2026-04-18 03:39 | 34.74719 | -116.96688 | 22088 ft | 406 kts | 264° |
| 2026-04-18 03:39 | 34.74375 | -117.00069 | 22082 ft | 408 kts | 265° |
| 2026-04-18 03:40 | 34.74028 | -117.03518 | 22080 ft | 405 kts | 264° |
| 2026-04-18 03:40 | 34.73682 | -117.06894 | 22078 ft | 408 kts | 264° |
| 2026-04-18 03:40 | 34.73329 | -117.10349 | 22076 ft | 405 kts | 264° |
| 2026-04-18 03:40 | 34.72983 | -117.13719 | 22067 ft | 408 kts | 264° |
| 2026-04-18 03:41 | 34.72632 | -117.17145 | 22066 ft | 405 kts | 264° |
| 2026-04-18 03:41 | 34.72282 | -117.20539 | 21918 ft | 413 kts | 264° |
| 2026-04-18 03:41 | 34.71924 | -117.24002 | 21538 ft | 402 kts | 264° |
| 2026-04-18 03:41 | 34.71576 | -117.27341 | 21151 ft | 406 kts | 264° |
| 2026-04-18 03:42 | 34.71223 | -117.30760 | 20756 ft | 398 kts | 264° |
| 2026-04-18 03:42 | 34.70878 | -117.34063 | 20362 ft | 399 kts | 264° |
| 2026-04-18 03:42 | 34.70528 | -117.37420 | 19968 ft | 393 kts | 264° |
| 2026-04-18 03:42 | 34.70185 | -117.40682 | 19587 ft | 394 kts | 264° |
| 2026-04-18 03:43 | 34.69839 | -117.43989 | 19188 ft | 387 kts | 264° |
| 2026-04-18 03:43 | 34.69500 | -117.47201 | 18802 ft | 389 kts | 264° |
| 2026-04-18 03:43 | 34.69152 | -117.50490 | 18411 ft | 383 kts | 264° |
| 2026-04-18 03:43 | 34.68816 | -117.53638 | 17995 ft | 386 kts | 264° |
| 2026-04-18 03:44 | 34.68471 | -117.56875 | 17600 ft | 378 kts | 264° |
| 2026-04-18 03:44 | 34.68135 | -117.60027 | 17217 ft | 384 kts | 264° |
| 2026-04-18 03:44 | 34.67793 | -117.63231 | 16829 ft | 372 kts | 264° |
| 2026-04-18 03:44 | 34.67460 | -117.66362 | 16452 ft | 382 kts | 264° |
| 2026-04-18 03:45 | 34.67128 | -117.69526 | 16068 ft | 367 kts | 264° |
| 2026-04-18 03:45 | 34.66800 | -117.72620 | 15685 ft | 379 kts | 264° |
| 2026-04-18 03:45 | 34.66467 | -117.75747 | 15312 ft | 362 kts | 264° |
| 2026-04-18 03:45 | 34.66138 | -117.78820 | 14962 ft | 376 kts | 264° |
| 2026-04-18 03:46 | 34.65809 | -117.81892 | 14601 ft | 358 kts | 264° |
| 2026-04-18 03:46 | 34.65482 | -117.84950 | 14247 ft | 372 kts | 264° |
| 2026-04-18 03:46 | 34.65155 | -117.87988 | 13887 ft | 355 kts | 263° |
| 2026-04-18 03:46 | 34.64825 | -117.91020 | 13508 ft | 366 kts | 263° |
| 2026-04-18 03:47 | 34.64497 | -117.93998 | 13151 ft | 352 kts | 263° |
| 2026-04-18 03:47 | 34.64166 | -117.97042 | 12796 ft | 362 kts | 264° |
| 2026-04-18 03:47 | 34.63847 | -117.99947 | 12450 ft | 343 kts | 264° |
| 2026-04-18 03:47 | 34.63637 | -118.01850 | 12189 ft | 329 kts | 264° |
| 2026-04-18 03:48 | 34.63253 | -118.05331 | 11771 ft | 302 kts | 264° |
| 2026-04-18 03:48 | 34.62844 | -118.07783 | 11479 ft | 293 kts | 256° |
| 2026-04-18 03:48 | 34.62295 | -118.10170 | 11197 ft | 295 kts | 256° |
| 2026-04-18 03:48 | 34.61936 | -118.11761 | 11005 ft | 293 kts | 257° |
| 2026-04-18 03:49 | 34.61412 | -118.14145 | 10731 ft | 292 kts | 257° |
| 2026-04-18 03:49 | 34.60888 | -118.16534 | 10441 ft | 293 kts | 257° |
| 2026-04-18 03:49 | 34.60357 | -118.18919 | 10150 ft | 293 kts | 256° |
| 2026-04-18 03:49 | 34.59823 | -118.21305 | 9852 ft | 293 kts | 256° |
| 2026-04-18 03:50 | 34.59294 | -118.23678 | 9541 ft | 291 kts | 256° |
| 2026-04-18 03:50 | 34.58768 | -118.26040 | 9246 ft | 289 kts | 256° |
| 2026-04-18 03:50 | 34.58243 | -118.28392 | 8961 ft | 290 kts | 256° |
| 2026-04-18 03:50 | 34.57716 | -118.30747 | 8672 ft | 289 kts | 256° |
| 2026-04-18 03:51 | 34.57187 | -118.33103 | 8382 ft | 288 kts | 256° |
| 2026-04-18 03:51 | 34.56660 | -118.35456 | 8110 ft | 289 kts | 256° |
| 2026-04-18 03:51 | 34.56142 | -118.37772 | 8094 ft | 286 kts | 256° |
| 2026-04-18 03:51 | 34.55611 | -118.40130 | 8096 ft | 286 kts | 256° |
| 2026-04-18 03:52 | 34.55090 | -118.42451 | 8093 ft | 290 kts | 256° |
| 2026-04-18 03:52 | 34.54555 | -118.44798 | 8079 ft | 282 kts | 255° |
| 2026-04-18 03:52 | 34.53729 | -118.47016 | 8062 ft | 298 kts | 239° |
| 2026-04-18 03:52 | 34.52445 | -118.48883 | 8057 ft | 282 kts | 224° |
| 2026-04-18 03:53 | 34.50788 | -118.50308 | 8057 ft | 299 kts | 208° |
| 2026-04-18 03:53 | 34.48915 | -118.51191 | 8052 ft | 283 kts | 196° |
| 2026-04-18 03:53 | 34.46908 | -118.51508 | 8031 ft | 297 kts | 179° |
| 2026-04-18 03:53 | 34.44907 | -118.51320 | 8031 ft | 286 kts | 174° |
| 2026-04-18 03:54 | 34.42868 | -118.51093 | 8031 ft | 293 kts | 175° |
| 2026-04-18 03:54 | 34.40887 | -118.50913 | 8028 ft | 285 kts | 176° |